シカゴ/オヘア の空港の天気 - METARとTAF

シカゴ・オヘア国際空港 ( KORD / ORD ) - アメリカ イリノイ州シカゴ
飛行場実況気象(Metar)
観測時間08/11 00:51 CDT (08/11 05:51 UTC)
風向・風速南西 3m/s
視程10km以上
天気現象
全天の4割程度の雲 雲底高度 7620m
気温20.6℃
湿度87%
気圧1011.9hPa
METARKORD 110551Z 23006KT 10SM SCT250 21/18 A2990 RMK AO2 SLP119 T02060183 10244 20206 403280206 56002 $
過去の天気等 Google飛行場航空写真 Wunderground天気予報

過去48時間のMETAR

飛行場予報(TAF)
発表時間: 8/11 00:28 CDT (8/11 05:28 UTC)
予報対象時間: 11日1時 CDT ~ 12日7時 CDT
風向・風速西 4m/s
視程10km以上
少しの雲 雲底高度 910m
全天の8割程度の雲 雲底高度 7620m
11日6時 CDT から
風向・風速北北西 4m/s
視程10km以上
全天の4割程度の雲 雲底高度 7620m
11日12時 CDT から
風向・風速北東 5m/s
視程10km以上
少しの雲 雲底高度 9140m
11日20時 CDT から
風向・風速不定 2m/s
視程10km以上
少しの雲 雲底高度 9140m
KORD 110528Z 1106/1212 26007KT P6SM FEW030 BKN250
FM111100 34007KT P6SM SCT250
FM111700 05010KT P6SM FEW300
FM120100 VRB04KT P6SM FEW300